This is the latest recevied weather packets stored in our database for station/object VK4HIT-13. If no packets are shown the sender has not sent any weather packets the latest 10 day(s).
| Time | Temp. | Humidity | Pressure | Rain* | Wind** | Luminosity | Snow |
|---|---|---|---|---|---|---|---|
| 1777445683 | 21.67° C | 65% | 1024 hPa | 0 mm | - | - | - |
| 1777445383 | 21.67° C | 64% | 1023.9 hPa | 0 mm | - | - | - |
| 1777445083 | 21.67° C | 64% | 1023.8 hPa | 0 mm | - | - | - |
| 1777444783 | 21.67° C | 64% | 1023.8 hPa | 0 mm | - | - | - |
| 1777444483 | 21.67° C | 65% | 1023.8 hPa | 0 mm | - | - | - |
| 1777444183 | 21.67° C | 65% | 1023.8 hPa | 0 mm | - | - | - |
| 1777443883 | 22.22° C | 66% | 1023.8 hPa | 0 mm | - | - | - |
| 1777443583 | 22.22° C | 66% | 1023.7 hPa | 0 mm | - | - | - |
| 1777443283 | 22.78° C | 65% | 1023.7 hPa | 0 mm | - | - | - |
| 1777442983 | 22.78° C | 63% | 1023.7 hPa | 0 mm | - | - | - |
| 1777442683 | 23.33° C | 62% | 1023.5 hPa | 0 mm | - | - | - |
| 1777442383 | 22.78° C | 62% | 1023.5 hPa | 0 mm | - | - | - |
| 1777442083 | 22.22° C | 64% | 1023.4 hPa | 0 mm | - | - | - |
| 1777441783 | 21.67° C | 65% | 1023.4 hPa | 0 mm | - | - | - |
| 1777441483 | 21.67° C | 65% | 1023.3 hPa | 0 mm | - | - | - |
| 1777441183 | 21.67° C | 66% | 1023.2 hPa | 0 mm | - | - | - |
| 1777440883 | 21.67° C | 65% | 1023.3 hPa | 0 mm | - | - | - |
| 1777440583 | 22.22° C | 65% | 1023.3 hPa | 0 mm | - | - | - |
| 1777440283 | 22.78° C | 63% | 1023.3 hPa | 0 mm | - | - | - |
| 1777439983 | 23.89° C | 60% | 1023.2 hPa | 0 mm | - | - | - |
| 1777439683 | 23.33° C | 59% | 1023.1 hPa | 0 mm | - | - | - |
| 1777439383 | 23.89° C | 57% | 1023.1 hPa | 0 mm | - | - | - |
| 1777439083 | 24.44° C | 56% | 1023 hPa | 0 mm | - | - | - |
| 1777438783 | 23.89° C | 55% | 1023 hPa | 0 mm | - | - | - |
| 1777438483 | 23.89° C | 56% | 1022.9 hPa | 0 mm | - | - | - |
* Rain latest hour (hover to see other rain measurements)
** Current wind speed in m/s (hover to see current wind gust speed)